createdAt,value
2018-10-19T00:02:01.694Z,5.30
2018-10-19T00:04:37.116Z,5.65
2018-10-19T00:07:12.641Z,6.03
2018-10-19T00:09:48.026Z,5.83
2018-10-19T00:12:23.425Z,5.10
2018-10-19T00:14:58.694Z,5.60
2018-10-19T00:17:34.002Z,5.33
2018-10-19T00:20:09.869Z,6.30
2018-10-19T00:22:45.381Z,5.67
2018-10-19T00:25:20.681Z,5.78
2018-10-19T00:27:56.082Z,5.67
2018-10-19T00:30:31.572Z,4.80
2018-10-19T00:33:07.112Z,4.60
2018-10-19T00:35:42.662Z,5.45
2018-10-19T00:38:18.175Z,5.28
2018-10-19T00:40:53.701Z,4.90
2018-10-19T00:43:29.255Z,3.55
2018-10-19T00:46:04.749Z,3.60
2018-10-19T00:48:40.075Z,4.87
2018-10-19T00:51:15.808Z,4.87
2018-10-19T00:53:51.394Z,4.80
2018-10-19T00:56:26.704Z,5.75
2018-10-19T00:59:02.037Z,3.85
2018-10-19T01:01:37.447Z,5.15
2018-10-19T01:04:13.083Z,5.55
2018-10-19T01:06:48.231Z,5.17
2018-10-19T01:09:23.835Z,4.75
2018-10-19T01:11:59.486Z,4.58
2018-10-19T01:14:34.973Z,5.97
2018-10-19T01:17:10.685Z,4.20
2018-10-19T01:19:46.180Z,4.92
2018-10-19T01:22:21.666Z,4.92
2018-10-19T01:24:57.085Z,3.75
2018-10-19T01:27:33.772Z,5.08
2018-10-19T01:30:09.755Z,4.55
2018-10-19T01:32:45.366Z,4.03
2018-10-19T01:35:20.803Z,4.97
2018-10-19T01:37:56.361Z,4.97
2018-10-19T01:40:31.873Z,5.05
2018-10-19T01:43:07.541Z,5.40
2018-10-19T01:45:48.139Z,5.80
2018-10-19T01:48:23.404Z,5.50
2018-10-19T01:50:59.273Z,5.15
2018-10-19T01:53:34.643Z,4.90
2018-10-19T01:56:10.004Z,5.28
2018-10-19T01:58:45.237Z,5.33
2018-10-19T02:01:21.151Z,5.17
2018-10-19T02:03:56.546Z,5.50
2018-10-19T02:06:31.792Z,5.08
2018-10-19T02:09:08.285Z,5.17
2018-10-19T02:11:43.704Z,6.53
2018-10-19T02:14:18.928Z,5.12
2018-10-19T02:16:54.596Z,5.20
2018-10-19T02:19:30.015Z,6.17
2018-10-19T02:22:05.662Z,6.25
2018-10-19T02:24:41.148Z,6.35
2018-10-19T02:27:16.594Z,6.00
2018-10-19T02:29:51.861Z,6.50
2018-10-19T02:32:27.153Z,4.62
2018-10-19T02:35:02.741Z,5.50
2018-10-19T02:37:38.314Z,5.60
2018-10-19T02:40:13.744Z,5.20
2018-10-19T02:42:49.172Z,6.50
2018-10-19T02:45:24.664Z,5.55
2018-10-19T02:48:00.062Z,6.78
2018-10-19T02:50:35.532Z,7.05
2018-10-19T02:53:11.236Z,5.80
2018-10-19T02:55:46.718Z,5.45
2018-10-19T02:58:22.022Z,5.70
2018-10-19T03:00:57.422Z,5.22
2018-10-19T03:03:32.586Z,5.47
2018-10-19T03:06:07.905Z,5.10
2018-10-19T03:08:43.221Z,4.45
2018-10-19T03:11:18.678Z,5.37
2018-10-19T03:13:54.115Z,5.85
2018-10-19T03:16:29.544Z,5.30
2018-10-19T03:19:05.069Z,5.95
2018-10-19T03:21:40.584Z,5.40
2018-10-19T03:24:15.722Z,4.95
2018-10-19T03:26:51.112Z,5.20
2018-10-19T03:29:26.494Z,5.25
2018-10-19T03:32:01.944Z,5.87
2018-10-19T03:34:37.557Z,5.42
2018-10-19T03:37:13.211Z,6.67
2018-10-19T03:39:48.470Z,6.85
2018-10-19T03:42:23.794Z,6.70
2018-10-19T03:44:59.011Z,5.80
2018-10-19T03:47:34.263Z,5.70
2018-10-19T03:50:09.605Z,6.15
2018-10-19T03:52:44.855Z,5.20
2018-10-19T03:55:20.263Z,5.03
2018-10-19T03:57:55.744Z,5.70
2018-10-19T04:00:31.241Z,5.05
2018-10-19T04:03:07.070Z,4.58
2018-10-19T04:05:42.465Z,5.28
2018-10-19T04:08:17.853Z,5.17
2018-10-19T04:10:53.124Z,4.60
2018-10-19T04:13:28.505Z,5.42
2018-10-19T04:16:04.028Z,5.25
2018-10-19T04:18:39.485Z,5.60
2018-10-19T04:21:15.202Z,5.65
2018-10-19T04:23:50.727Z,7.37
2018-10-19T04:26:26.184Z,6.12
2018-10-19T04:29:01.714Z,8.73
2018-10-19T04:31:37.088Z,7.35
2018-10-19T04:34:12.440Z,7.05
2018-10-19T04:36:48.134Z,6.55
2018-10-19T04:39:23.555Z,7.00
2018-10-19T04:41:58.830Z,6.22
2018-10-19T04:44:34.422Z,6.40
2018-10-19T04:47:10.036Z,7.15
2018-10-19T04:49:45.688Z,6.00
2018-10-19T04:52:21.007Z,5.65
2018-10-19T04:54:56.547Z,5.72
2018-10-19T04:57:31.981Z,6.40
2018-10-19T05:00:07.536Z,5.60
2018-10-19T05:02:43.147Z,5.85
2018-10-19T05:05:18.506Z,5.53
2018-10-19T05:07:53.841Z,5.95
2018-10-19T05:10:29.324Z,5.62
2018-10-19T05:13:04.762Z,5.53
2018-10-19T05:15:40.167Z,6.58
2018-10-19T05:18:15.507Z,6.97
2018-10-19T05:20:51.085Z,5.87
2018-10-19T05:23:26.523Z,5.72
2018-10-19T05:26:01.922Z,6.25
2018-10-19T05:28:37.394Z,5.80
2018-10-19T05:31:12.933Z,6.87
2018-10-19T05:33:48.354Z,6.35
2018-10-19T05:36:23.821Z,5.87
2018-10-19T05:38:59.274Z,5.08
2018-10-19T05:41:34.584Z,4.80
2018-10-19T05:44:10.096Z,5.70
2018-10-19T05:46:45.724Z,6.40
2018-10-19T05:49:21.032Z,7.30
2018-10-19T05:51:56.511Z,6.15
2018-10-19T05:54:32.134Z,6.12
2018-10-19T05:57:07.514Z,6.10
2018-10-19T05:59:42.813Z,6.37
2018-10-19T06:02:18.228Z,7.35
2018-10-19T06:04:53.634Z,7.45
2018-10-19T06:07:29.062Z,6.70
2018-10-19T06:10:04.814Z,6.87
2018-10-19T06:12:40.341Z,6.87
2018-10-19T06:15:15.862Z,8.63
2018-10-19T06:17:51.364Z,7.00
2018-10-19T06:20:26.973Z,6.03
2018-10-19T06:23:02.289Z,6.95
2018-10-19T06:25:37.954Z,6.35
2018-10-19T06:28:13.511Z,7.30
2018-10-19T06:30:48.976Z,6.30
2018-10-19T06:33:24.421Z,7.75
2018-10-19T06:35:59.731Z,7.00
2018-10-19T06:38:35.104Z,7.15
2018-10-19T06:41:10.336Z,6.62
2018-10-19T06:43:45.804Z,7.78
2018-10-19T06:46:21.203Z,6.35
2018-10-19T06:48:56.627Z,5.30
2018-10-19T06:51:31.877Z,6.03
2018-10-19T06:54:07.306Z,5.87
2018-10-19T06:56:42.546Z,6.17
2018-10-19T06:59:17.751Z,4.95
2018-10-19T07:01:53.081Z,6.05
2018-10-19T07:04:28.533Z,5.33
2018-10-19T07:07:04.043Z,5.78
2018-10-19T07:09:39.393Z,6.05
2018-10-19T07:12:14.807Z,6.08
2018-10-19T07:14:50.171Z,5.62
2018-10-19T07:17:26.325Z,6.20
2018-10-19T07:20:01.784Z,4.10
2018-10-19T07:22:37.334Z,5.53
2018-10-19T07:25:12.977Z,5.45
2018-10-19T07:27:48.374Z,5.87
2018-10-19T07:30:23.996Z,6.10
2018-10-19T07:32:59.173Z,6.22
2018-10-19T07:35:34.578Z,6.42
2018-10-19T07:38:10.224Z,7.92
2018-10-19T07:40:48.728Z,7.40
2018-10-19T07:43:24.347Z,6.60
2018-10-19T07:46:00.257Z,7.42
2018-10-19T07:48:39.117Z,6.50
2018-10-19T07:51:14.381Z,6.12
2018-10-19T07:53:49.796Z,6.50
2018-10-19T07:56:25.454Z,4.78
2018-10-19T07:59:00.997Z,4.90
2018-10-19T08:01:36.407Z,5.60
2018-10-19T08:04:11.718Z,5.17
2018-10-19T08:06:47.031Z,5.75
2018-10-19T08:09:22.404Z,4.50
2018-10-19T08:11:58.018Z,5.05
2018-10-19T08:14:33.474Z,5.20
2018-10-19T08:17:09.107Z,5.12
2018-10-19T08:19:44.680Z,4.50
2018-10-19T08:22:20.257Z,5.90
2018-10-19T08:24:55.792Z,4.67
2018-10-19T08:27:31.359Z,4.70
2018-10-19T08:30:06.676Z,4.72
2018-10-19T08:32:42.052Z,5.58
2018-10-19T08:35:17.704Z,4.97
2018-10-19T08:37:53.211Z,4.55
2018-10-19T08:40:28.650Z,5.33
2018-10-19T08:43:04.156Z,4.97
2018-10-19T08:45:39.531Z,4.50
2018-10-19T08:48:15.010Z,3.92
2018-10-19T08:50:50.404Z,4.08
2018-10-19T08:53:25.907Z,4.78
2018-10-19T08:56:01.222Z,5.25
2018-10-19T08:58:36.758Z,4.75
2018-10-19T09:01:12.889Z,4.90
2018-10-19T09:03:48.202Z,5.65
2018-10-19T09:06:23.667Z,5.33
2018-10-19T09:08:59.243Z,4.33
2018-10-19T09:11:35.553Z,5.50
2018-10-19T09:14:23.235Z,3.75
2018-10-19T09:16:59.697Z,3.67
2018-10-19T09:19:35.098Z,5.80
2018-10-19T09:22:10.908Z,4.60
2018-10-19T09:24:46.538Z,4.65
2018-10-19T09:27:22.052Z,5.60
2018-10-19T09:29:57.512Z,4.20
2018-10-19T09:32:32.839Z,3.90
2018-10-19T09:35:08.307Z,3.62
2018-10-19T09:37:43.384Z,2.98
2018-10-19T09:40:18.759Z,3.45
2018-10-19T09:42:53.843Z,5.62
2018-10-19T09:45:29.335Z,4.15
2018-10-19T09:48:04.846Z,4.95
2018-10-19T09:50:39.891Z,3.15
2018-10-19T09:53:15.376Z,2.12
2018-10-19T09:55:50.696Z,2.35
2018-10-19T09:58:26.225Z,2.50
2018-10-19T10:01:01.739Z,1.65
2018-10-19T10:03:37.211Z,1.95
2018-10-19T10:06:12.462Z,3.15
2018-10-19T10:08:48.026Z,2.50
2018-10-19T10:11:23.554Z,1.92
2018-10-19T10:13:58.926Z,2.15
2018-10-19T10:16:34.285Z,1.67
2018-10-19T10:19:09.891Z,1.55
2018-10-19T10:21:45.164Z,1.90
2018-10-19T10:24:20.475Z,2.92
2018-10-19T10:26:56.081Z,2.10
2018-10-19T10:29:31.359Z,1.67
2018-10-19T10:32:06.681Z,2.85
2018-10-19T10:34:42.075Z,1.82
2018-10-19T10:37:17.307Z,1.52
2018-10-19T10:39:52.982Z,2.20
2018-10-19T10:42:28.444Z,1.77
2018-10-19T10:45:04.056Z,1.65
2018-10-19T10:47:39.720Z,1.75
2018-10-19T10:50:15.194Z,1.70
2018-10-19T10:52:50.474Z,1.75
2018-10-19T10:55:25.967Z,1.87
2018-10-19T10:58:01.375Z,1.40
2018-10-19T11:00:36.894Z,1.60
2018-10-19T11:03:12.305Z,1.55
2018-10-19T11:05:47.876Z,2.30
2018-10-19T11:08:23.493Z,2.20
2018-10-19T11:11:07.895Z,2.08
2018-10-19T11:13:43.831Z,2.00
2018-10-19T11:16:19.298Z,1.32
2018-10-19T11:18:54.676Z,2.10
2018-10-19T11:21:29.967Z,1.70
2018-10-19T11:24:05.501Z,1.47
2018-10-19T11:26:40.758Z,1.52
2018-10-19T11:29:16.135Z,1.80
2018-10-19T11:31:51.320Z,1.85
2018-10-19T11:34:26.851Z,1.85
2018-10-19T11:37:02.427Z,1.45
2018-10-19T11:39:46.081Z,2.00
2018-10-19T11:42:21.446Z,2.47
2018-10-19T11:44:56.770Z,1.42
2018-10-19T11:47:32.136Z,2.52
2018-10-19T11:50:07.776Z,1.20
2018-10-19T11:52:42.911Z,1.45
2018-10-19T11:55:18.370Z,1.42
2018-10-19T11:57:54.011Z,1.47
2018-10-19T12:00:29.254Z,1.42
2018-10-19T12:03:04.797Z,1.30
2018-10-19T12:05:40.224Z,1.72
2018-10-19T12:08:15.684Z,1.15
2018-10-19T12:10:51.257Z,1.55
2018-10-19T12:13:26.583Z,1.20
2018-10-19T12:16:02.519Z,1.80
2018-10-19T12:18:37.827Z,1.52
2018-10-19T12:21:13.472Z,1.77
2018-10-19T12:23:49.584Z,1.52
2018-10-19T12:26:25.283Z,1.42
2018-10-19T12:29:00.738Z,1.87
2018-10-19T12:31:36.286Z,1.80
2018-10-19T12:34:11.806Z,2.83
2018-10-19T12:36:47.371Z,1.77
2018-10-19T12:39:23.023Z,3.77
2018-10-19T12:41:58.689Z,2.00
2018-10-19T12:44:34.354Z,2.12
2018-10-19T12:47:20.761Z,1.60
2018-10-19T12:49:56.519Z,2.00
2018-10-19T12:52:32.161Z,2.00
2018-10-19T12:55:08.647Z,1.60
2018-10-19T12:57:44.014Z,1.98
2018-10-19T13:00:19.644Z,1.77
2018-10-19T13:02:55.245Z,1.60
2018-10-19T13:05:30.697Z,1.32
2018-10-19T13:08:12.920Z,1.42
2018-10-19T13:10:48.433Z,2.05
2018-10-19T13:13:23.924Z,2.70
2018-10-19T13:15:59.757Z,3.62
2018-10-19T13:18:35.479Z,3.15
2018-10-19T13:21:11.117Z,2.85
2018-10-19T13:23:46.738Z,2.42
2018-10-19T13:26:22.250Z,2.00
2018-10-19T13:28:57.831Z,1.52
2018-10-19T13:31:33.260Z,2.15
2018-10-19T13:34:09.258Z,1.82
2018-10-19T13:36:44.773Z,1.70
2018-10-19T13:39:20.426Z,1.30
2018-10-19T13:41:56.103Z,2.37
2018-10-19T13:44:31.848Z,1.92
2018-10-19T13:47:07.348Z,1.80
2018-10-19T13:49:42.828Z,1.47
2018-10-19T13:52:18.219Z,1.60
2018-10-19T13:54:53.498Z,2.00
2018-10-19T13:57:29.053Z,1.80
2018-10-19T14:00:04.923Z,2.20
2018-10-19T14:02:40.495Z,2.37
2018-10-19T14:05:16.227Z,1.90
2018-10-19T14:07:51.764Z,2.70
2018-10-19T14:10:27.240Z,1.60
2018-10-19T14:13:02.826Z,1.60
2018-10-19T14:15:38.465Z,2.00
2018-10-19T14:18:13.951Z,2.17
2018-10-19T14:20:49.431Z,2.12
2018-10-19T14:23:25.027Z,1.60
2018-10-19T14:26:00.501Z,1.92
2018-10-19T14:28:36.168Z,1.90
2018-10-19T14:31:11.655Z,1.60
2018-10-19T14:33:47.022Z,1.40
2018-10-19T14:36:22.622Z,1.92
2018-10-19T14:38:57.976Z,1.92
2018-10-19T14:41:33.623Z,2.10
2018-10-19T14:44:08.990Z,1.87
2018-10-19T14:46:44.375Z,1.85
2018-10-19T14:49:19.878Z,2.30
2018-10-19T14:51:55.554Z,1.62
2018-10-19T14:54:31.199Z,1.20
2018-10-19T14:57:06.920Z,1.50
2018-10-19T14:59:42.548Z,1.50
2018-10-19T15:02:17.946Z,2.62
2018-10-19T15:04:53.588Z,2.10
2018-10-19T15:07:29.121Z,1.70
2018-10-19T15:10:04.571Z,1.72
2018-10-19T15:12:39.927Z,1.90
2018-10-19T15:15:17.059Z,1.75
2018-10-19T15:17:52.727Z,2.20
2018-10-19T15:20:28.127Z,1.87
2018-10-19T15:23:03.564Z,1.25
2018-10-19T15:25:39.093Z,1.75
2018-10-19T15:28:14.691Z,1.75
2018-10-19T15:30:50.226Z,1.20
2018-10-19T15:33:25.712Z,2.90
2018-10-19T15:36:01.181Z,1.80
2018-10-19T15:38:36.761Z,2.65
2018-10-19T15:41:12.018Z,2.40
2018-10-19T15:43:47.439Z,2.17
2018-10-19T15:46:23.131Z,2.85
2018-10-19T15:48:58.542Z,2.20
2018-10-19T15:51:34.018Z,2.58
2018-10-19T15:54:09.760Z,3.00
2018-10-19T15:56:45.151Z,1.60
2018-10-19T15:59:20.765Z,2.00
2018-10-19T16:01:56.264Z,2.33
2018-10-19T16:04:31.740Z,1.90
2018-10-19T16:07:07.500Z,2.08
2018-10-19T16:09:43.160Z,2.58
2018-10-19T16:12:18.696Z,2.20
2018-10-19T16:14:54.276Z,2.02
2018-10-19T16:17:29.621Z,3.02
2018-10-19T16:20:06.036Z,2.20
2018-10-19T16:22:41.584Z,2.87
2018-10-19T16:25:17.041Z,2.77
2018-10-19T16:27:52.670Z,3.15
2018-10-19T16:30:28.141Z,3.02
2018-10-19T16:33:03.824Z,3.45
2018-10-19T16:35:39.224Z,4.03
2018-10-19T16:38:14.782Z,3.37
2018-10-19T16:40:50.332Z,4.47
2018-10-19T16:43:25.965Z,4.00
2018-10-19T16:46:01.554Z,4.60
2018-10-19T16:48:37.092Z,3.45
2018-10-19T16:51:12.897Z,4.00
2018-10-19T16:53:48.179Z,3.72
2018-10-19T16:56:23.763Z,5.00
2018-10-19T16:58:59.336Z,4.85
2018-10-19T17:01:34.868Z,4.80
2018-10-19T17:04:10.386Z,4.80
2018-10-19T17:06:45.758Z,5.70
2018-10-19T17:09:21.244Z,6.25
2018-10-19T17:11:56.767Z,6.40
2018-10-19T17:14:32.161Z,7.12
2018-10-19T17:17:07.665Z,7.65
2018-10-19T17:19:43.271Z,6.67
2018-10-19T17:22:18.611Z,6.12
2018-10-19T17:24:54.406Z,7.00
2018-10-19T17:27:30.105Z,7.58
2018-10-19T17:30:07.204Z,7.55
2018-10-19T17:32:42.614Z,7.37
2018-10-19T17:35:18.193Z,7.47
2018-10-19T17:37:53.544Z,7.80
2018-10-19T17:40:29.151Z,7.00
2018-10-19T17:43:04.683Z,6.25
2018-10-19T17:45:40.262Z,8.50
2018-10-19T17:48:15.946Z,5.83
2018-10-19T17:50:51.483Z,5.90
2018-10-19T17:53:27.043Z,6.60
2018-10-19T17:56:02.569Z,6.62
2018-10-19T17:58:38.348Z,6.90
2018-10-19T18:01:13.679Z,5.85
2018-10-19T18:03:48.986Z,6.40
2018-10-19T18:06:24.542Z,6.30
2018-10-19T18:08:59.943Z,5.70
2018-10-19T18:11:35.395Z,5.95
2018-10-19T18:14:11.056Z,5.33
2018-10-19T18:16:46.661Z,6.85
2018-10-19T18:19:22.259Z,6.28
2018-10-19T18:21:57.769Z,6.42
2018-10-19T18:24:33.346Z,7.08
2018-10-19T18:27:08.957Z,7.87
2018-10-19T18:29:44.261Z,9.75
2018-10-19T18:32:19.971Z,9.75
2018-10-19T18:34:55.604Z,9.18
2018-10-19T18:37:31.078Z,8.85
2018-10-19T18:40:08.320Z,9.63
2018-10-19T18:42:43.900Z,9.30
2018-10-19T18:45:19.400Z,10.45
2018-10-19T18:47:54.841Z,9.13
2018-10-19T18:50:30.436Z,9.13
2018-10-19T18:53:06.318Z,8.83
2018-10-19T18:55:41.875Z,7.95
2018-10-19T18:58:17.317Z,7.50
2018-10-19T19:00:52.718Z,8.48
2018-10-19T19:03:28.295Z,8.10
2018-10-19T19:06:03.796Z,7.25
2018-10-19T19:08:39.284Z,10.23
2018-10-19T19:11:14.722Z,8.93
2018-10-19T19:13:50.915Z,7.80
2018-10-19T19:16:31.212Z,5.25
2018-10-19T19:19:06.778Z,5.80
2018-10-19T19:21:42.299Z,6.67
2018-10-19T19:24:22.861Z,5.85
2018-10-19T19:26:58.425Z,5.60
2018-10-19T19:29:33.843Z,6.10
2018-10-19T19:32:09.501Z,6.20
2018-10-19T19:34:45.034Z,6.08
2018-10-19T19:37:20.428Z,5.35
2018-10-19T19:39:55.871Z,4.20
2018-10-19T19:42:36.436Z,5.45
2018-10-19T19:45:11.931Z,5.65
2018-10-19T19:47:52.491Z,4.60
2018-10-19T19:50:27.855Z,5.03
2018-10-19T19:53:03.724Z,4.70
2018-10-19T19:55:38.884Z,4.60
2018-10-19T19:58:14.185Z,4.45
2018-10-19T20:00:49.656Z,4.53
2018-10-19T20:03:25.172Z,3.83
2018-10-19T20:06:00.578Z,3.98
2018-10-19T20:08:35.954Z,4.65
2018-10-19T20:11:11.515Z,5.30
2018-10-19T20:13:46.882Z,4.58
2018-10-19T20:16:22.291Z,5.05
2018-10-19T20:18:57.575Z,5.55
2018-10-19T20:21:33.086Z,4.45
2018-10-19T20:24:08.763Z,4.60
2018-10-19T20:26:44.132Z,5.20
2018-10-19T20:29:19.571Z,5.05
2018-10-19T20:31:54.950Z,5.80
2018-10-19T20:34:30.385Z,5.25
2018-10-19T20:37:06.072Z,4.75
2018-10-19T20:39:41.426Z,5.12
2018-10-19T20:42:16.823Z,4.58
2018-10-19T20:44:52.171Z,6.22
2018-10-19T20:47:27.981Z,3.95
2018-10-19T20:50:03.464Z,3.40
2018-10-19T20:52:39.115Z,3.10
2018-10-19T20:55:14.564Z,3.27
2018-10-19T20:57:50.212Z,3.17
2018-10-19T21:00:25.862Z,3.45
2018-10-19T21:03:01.291Z,3.72
2018-10-19T21:05:37.653Z,2.83
2018-10-19T21:08:13.374Z,2.90
2018-10-19T21:10:48.974Z,2.40
2018-10-19T21:13:24.576Z,3.70
2018-10-19T21:16:00.286Z,3.87
2018-10-19T21:18:35.601Z,3.85
2018-10-19T21:21:11.220Z,3.50
2018-10-19T21:23:46.522Z,4.45
2018-10-19T21:26:22.165Z,7.22
2018-10-19T21:28:57.658Z,4.72
2018-10-19T21:31:33.385Z,5.20
2018-10-19T21:34:08.805Z,5.55
2018-10-19T21:36:44.306Z,4.30
2018-10-19T21:39:19.892Z,4.10
2018-10-19T21:41:55.370Z,4.37
2018-10-19T21:44:31.009Z,3.00
2018-10-19T21:47:06.654Z,3.42
2018-10-19T21:49:42.623Z,3.20
2018-10-19T21:52:18.493Z,3.77
2018-10-19T21:54:55.457Z,3.42
2018-10-19T21:57:31.081Z,4.08
2018-10-19T22:00:09.245Z,2.90
2018-10-19T22:02:45.651Z,3.60
2018-10-19T22:05:21.056Z,3.52
2018-10-19T22:07:56.638Z,3.55
2018-10-19T22:10:32.374Z,3.40
2018-10-19T22:13:07.967Z,3.47
2018-10-19T22:15:43.488Z,3.80
2018-10-19T22:18:19.011Z,3.67
2018-10-19T22:20:54.572Z,3.67
2018-10-19T22:23:30.284Z,4.00
2018-10-19T22:26:05.999Z,3.87
2018-10-19T22:28:41.574Z,3.65
2018-10-19T22:31:16.979Z,3.15
2018-10-19T22:33:52.290Z,3.08
2018-10-19T22:36:30.222Z,2.90
2018-10-19T22:39:07.720Z,4.08
2018-10-19T22:41:43.300Z,3.50
2018-10-19T22:44:19.284Z,3.47
2018-10-19T22:46:54.908Z,3.22
2018-10-19T22:49:30.922Z,4.62
2018-10-19T22:52:06.943Z,3.42
2018-10-19T22:54:43.412Z,3.30
2018-10-19T22:57:18.804Z,3.77
2018-10-19T22:59:54.872Z,3.90
2018-10-19T23:02:30.873Z,3.80
2018-10-19T23:05:06.538Z,3.30
2018-10-19T23:07:42.131Z,3.90
2018-10-19T23:10:17.843Z,3.62
2018-10-19T23:12:53.454Z,3.17
2018-10-19T23:15:29.000Z,3.90
2018-10-19T23:18:04.453Z,3.92
2018-10-19T23:20:40.014Z,3.37
2018-10-19T23:23:15.515Z,4.00
2018-10-19T23:25:50.844Z,4.17
2018-10-19T23:28:26.535Z,3.50
2018-10-19T23:31:02.030Z,3.10
2018-10-19T23:33:37.534Z,3.20
2018-10-19T23:36:18.755Z,3.55
2018-10-19T23:39:01.595Z,3.35
2018-10-19T23:41:37.025Z,3.85
2018-10-19T23:44:12.321Z,3.15
2018-10-19T23:46:47.575Z,3.27
2018-10-19T23:49:23.002Z,3.25
2018-10-19T23:51:58.261Z,3.30
2018-10-19T23:54:33.604Z,3.33
2018-10-19T23:57:09.031Z,2.92
2018-10-19T23:59:44.504Z,3.45
